Time;durP1;ratioP1;P1;durP2;ratioP2;P2;SDS_P1;SDS_P2;PMS_P1;PMS_P2;Temp;Humidity;BMP_temperature;BMP_pressure;BME280_temperature;BME280_humidity;BME280_pressure;Samples;Min_cycle;Max_cycle;Signal;HPM_P1;HPM_P2
2023/04/09 00:02:15;;;;;;;15.83;11.17;;;8.40;99.90;;;8.42;70.20;95160.72;5076421;28;21030;-57
2023/04/09 00:04:42;;;;;;;13.30;10.70;;;8.40;99.90;;;8.44;70.19;95165.88;5075206;28;20473;-58
2023/04/09 00:07:10;;;;;;;16.30;12.03;;;8.50;99.90;;;8.47;69.78;95168.25;5077149;28;20477;-67
2023/04/09 00:09:37;;;;;;;14.40;11.80;;;8.50;99.90;;;8.50;70.17;95168.00;5075424;28;20533;-57
2023/04/09 00:12:05;;;;;;;13.07;10.73;;;8.50;99.90;;;8.53;70.10;95165.16;5075775;28;20504;-58
2023/04/09 00:14:32;;;;;;;17.83;11.43;;;8.50;99.90;;;8.56;69.95;95167.53;5077109;28;20446;-68
2023/04/09 00:17:01;;;;;;;13.43;10.87;;;8.60;99.90;;;8.59;70.46;95172.53;5077984;28;20473;-56
2023/04/09 00:19:29;;;;;;;14.43;11.23;;;8.60;99.90;;;8.62;69.97;95176.72;5077287;28;20461;-58
2023/04/09 00:21:56;;;;;;;14.57;11.27;;;8.60;99.90;;;8.64;69.69;95168.72;5075634;28;20893;-68
2023/04/09 00:24:24;;;;;;;16.93;11.23;;;8.70;99.90;;;8.66;69.73;95175.53;5078527;28;20576;-68
2023/04/09 00:26:52;;;;;;;12.87;10.00;;;8.70;99.90;;;8.69;68.94;95171.81;5077529;28;20473;-58
2023/04/09 00:29:19;;;;;;;13.00;9.50;;;8.70;99.90;;;8.69;69.37;95167.41;5076675;28;20454;-67
2023/04/09 00:31:47;;;;;;;11.13;9.30;;;8.70;99.90;;;8.69;69.49;95177.06;5073911;28;20462;-67
2023/04/09 00:34:15;;;;;;;11.90;10.27;;;8.70;99.90;;;8.65;69.60;95167.78;5077220;28;20466;-57
2023/04/09 00:36:43;;;;;;;13.33;10.40;;;8.70;99.90;;;8.64;69.15;95173.97;5076114;28;20469;-57
2023/04/09 00:39:10;;;;;;;12.57;9.70;;;8.70;99.90;;;8.63;69.66;95177.53;5073397;28;20463;-58
2023/04/09 00:41:37;;;;;;;12.93;10.63;;;8.70;99.90;;;8.64;69.51;95174.78;5080583;28;20477;-67
2023/04/09 00:44:05;;;;;;;13.47;10.50;;;8.70;99.90;;;8.64;69.65;95168.72;5076184;28;20474;-57
2023/04/09 00:46:32;;;;;;;13.63;9.87;;;8.70;99.90;;;8.67;69.23;95173.72;5079021;28;20458;-67
2023/04/09 00:48:59;;;;;;;17.23;11.87;;;8.70;99.90;;;8.69;69.90;95177.06;5077797;28;20450;-56
2023/04/09 00:51:28;;;;;;;20.83;13.53;;;8.70;99.90;;;8.71;69.75;95173.38;5078876;28;20507;-58
2023/04/09 00:53:56;;;;;;;19.27;14.77;;;8.70;99.90;;;8.72;69.60;95171.56;5078092;28;20599;-56
2023/04/09 00:56:23;;;;;;;24.77;16.63;;;8.70;99.90;;;8.73;69.63;95168.00;5079065;28;20874;-66
2023/04/09 00:58:51;;;;;;;25.00;15.30;;;8.70;99.90;;;8.72;69.29;95168.94;5075721;28;20475;-57
2023/04/09 01:01:18;;;;;;;20.40;14.83;;;8.70;99.90;;;8.71;69.49;95169.94;5075380;28;20462;-56
2023/04/09 01:03:45;;;;;;;19.57;14.43;;;8.70;99.90;;;8.71;69.68;95175.16;5076596;28;20914;-68
2023/04/09 01:06:17;;;;;;;20.93;15.10;;;8.70;99.90;;;8.68;70.16;95170.16;5079831;28;20461;-67
2023/04/09 01:08:51;;;;;;;16.93;12.70;;;8.70;99.90;;;8.66;70.23;95158.94;5078831;28;20577;-67
2023/04/09 01:11:29;;;;;;;23.87;14.20;;;8.70;99.90;;;8.64;70.30;95163.50;5074261;28;21319;-56
2023/04/09 01:14:01;;;;;;;28.43;15.63;;;8.70;99.90;;;8.60;69.94;95173.38;5071650;28;20598;-57
2023/04/09 01:16:29;;;;;;;17.83;13.80;;;8.70;99.90;;;8.56;70.20;95171.94;5074112;28;20454;-57
2023/04/09 01:18:59;;;;;;;18.97;14.60;;;8.60;99.90;;;8.54;70.47;95179.13;5077659;28;20450;-69
2023/04/09 01:21:32;;;;;;;22.17;15.60;;;8.60;99.90;;;8.51;69.99;95182.78;5077786;28;20528;-57
2023/04/09 01:24:12;;;;;;;13.97;11.70;;;8.50;99.90;;;8.51;70.30;95184.59;5078314;28;20482;-67
2023/04/09 01:26:50;;;;;;;17.57;13.70;;;8.50;99.90;;;8.50;69.86;95177.66;5079605;28;21001;-58
2023/04/09 01:29:19;;;;;;;18.53;13.30;;;8.50;99.90;;;8.49;69.85;95176.84;5072779;28;20469;-70
2023/04/09 01:31:47;;;;;;;16.93;14.00;;;8.50;99.90;;;8.50;70.14;95181.13;5083686;28;20534;-67
2023/04/09 01:34:14;;;;;;;18.93;14.83;;;8.50;99.90;;;8.51;70.60;95180.16;5083750;28;20462;-67
2023/04/09 01:36:42;;;;;;;18.47;14.40;;;8.50;99.90;;;8.51;70.19;95180.16;5082437;28;20468;-69
2023/04/09 01:39:09;;;;;;;18.90;14.40;;;8.50;99.90;;;8.53;70.41;95178.25;5081290;28;20512;-67
2023/04/09 01:41:36;;;;;;;19.80;15.23;;;8.50;99.90;;;8.54;70.23;95179.94;5079387;28;20458;-57
2023/04/09 01:44:05;;;;;;;21.00;14.97;;;8.50;99.90;;;8.56;70.60;95187.69;5073463;28;21139;-57
2023/04/09 01:46:33;;;;;;;21.07;15.00;;;8.60;99.90;;;8.56;70.08;95182.44;5078113;28;20463;-55
2023/04/09 01:49:01;;;;;;;25.80;17.50;;;8.60;99.90;;;8.57;70.89;95186.75;5080672;28;20533;-67
2023/04/09 01:51:28;;;;;;;18.63;14.40;;;8.60;99.90;;;8.57;70.24;95171.84;5077846;28;20465;-57
2023/04/09 01:53:56;;;;;;;21.90;15.13;;;8.60;99.90;;;8.59;70.78;95169.91;5080432;28;20478;-57
2023/04/09 01:56:23;;;;;;;20.40;14.80;;;8.60;99.90;;;8.60;70.16;95171.59;5081378;28;20466;-66
2023/04/09 01:58:51;;;;;;;23.50;15.83;;;8.60;99.90;;;8.61;70.87;95177.66;5078578;28;20474;-65
2023/04/09 02:01:27;;;;;;;20.33;15.23;;;8.60;99.90;;;8.59;70.56;95169.91;5081117;28;20464;-68
2023/04/09 02:04:00;;;;;;;19.67;14.17;;;8.60;99.90;;;8.59;70.16;95172.53;5077075;28;20494;-67
2023/04/09 02:06:34;;;;;;;22.50;15.83;;;8.60;99.90;;;8.60;70.44;95168.97;5083112;28;20458;-67
2023/04/09 02:09:01;;;;;;;23.87;16.80;;;8.60;99.90;;;8.58;70.13;95181.38;5080475;28;20438;-67
2023/04/09 02:11:30;;;;;;;18.90;14.50;;;8.60;99.90;;;8.59;70.39;95169.09;5083324;28;20462;-66
2023/04/09 02:13:57;;;;;;;25.50;16.80;;;8.60;99.90;;;8.60;71.17;95179.47;5080118;28;20442;-66
2023/04/09 02:16:25;;;;;;;22.37;16.33;;;8.60;99.90;;;8.59;70.66;95169.91;5078270;28;20458;-56
2023/04/09 02:18:55;;;;;;;23.40;16.73;;;8.60;99.90;;;8.60;70.61;95168.16;5078420;28;20485;-67
2023/04/09 02:21:23;;;;;;;24.13;16.77;;;8.60;99.90;;;8.59;70.83;95172.53;5081469;28;20886;-68
2023/04/09 02:23:50;;;;;;;26.40;18.70;;;8.60;99.90;;;8.59;70.73;95172.53;5079297;28;20478;-57
2023/04/09 02:26:17;;;;;;;22.60;15.57;;;8.70;99.90;;;8.59;70.62;95172.53;5084183;28;20526;-57
2023/04/09 02:28:44;;;;;;;21.53;15.73;;;8.60;99.90;;;8.60;71.09;95174.22;5078331;28;20493;-57
2023/04/09 02:31:12;;;;;;;21.97;16.60;;;8.60;99.90;;;8.59;70.67;95172.53;5081923;28;20449;-66
2023/04/09 02:33:39;;;;;;;22.40;17.00;;;8.60;99.90;;;8.59;70.78;95177.78;5080701;28;20485;-67
2023/04/09 02:36:11;;;;;;;22.60;16.53;;;8.60;99.90;;;8.59;70.30;95172.53;5075987;28;20542;-58
2023/04/09 02:38:40;;;;;;;20.50;16.20;;;8.60;99.90;;;8.59;69.91;95188.25;5082771;28;20867;-57
2023/04/09 02:41:07;;;;;;;24.53;15.27;;;8.60;99.90;;;8.59;70.52;95177.78;5082829;28;20453;-57
2023/04/09 02:43:35;;;;;;;23.60;17.60;;;8.60;99.90;;;8.59;70.45;95172.53;5086959;28;20494;-57
2023/04/09 02:46:03;;;;;;;22.73;16.30;;;8.60;99.90;;;8.59;70.71;95175.16;5092113;22;20506;-67
2023/04/09 02:48:30;;;;;;;31.33;18.50;;;8.60;99.90;;;8.58;70.91;95170.88;5079756;28;20509;-58
2023/04/09 02:50:58;;;;;;;20.93;16.27;;;8.60;99.90;;;8.57;70.63;95166.59;5078576;28;21147;-68
2023/04/09 02:53:27;;;;;;;22.13;16.20;;;8.60;99.90;;;8.56;70.83;95167.53;5078005;28;20512;-57
2023/04/09 02:55:54;;;;;;;21.37;16.53;;;8.60;99.90;;;8.55;70.47;95173.75;5082289;28;20508;-66
2023/04/09 02:58:22;;;;;;;21.67;17.00;;;8.60;99.90;;;8.51;70.32;95161.81;5073819;28;20490;-56
2023/04/09 03:00:49;;;;;;;23.50;17.50;;;8.60;99.90;;;8.50;70.15;95168.00;5077204;28;20461;-68
2023/04/09 03:03:16;;;;;;;23.67;17.27;;;8.50;99.90;;;8.50;70.14;95173.25;5077975;28;20474;-67
2023/04/09 03:05:43;;;;;;;22.03;16.93;;;8.50;99.90;;;8.48;70.71;95175.16;5078116;28;20460;-57
2023/04/09 03:08:11;;;;;;;24.07;16.67;;;8.50;99.90;;;8.47;70.94;95173.50;5077527;28;20489;-67
2023/04/09 03:10:39;;;;;;;24.17;15.87;;;8.50;99.90;;;8.45;70.85;95178.03;5077230;28;20980;-58
2023/04/09 03:13:07;;;;;;;24.57;18.07;;;8.50;99.90;;;8.43;71.10;95172.06;5075051;28;20527;-67
2023/04/09 03:15:34;;;;;;;26.03;16.50;;;8.40;99.90;;;8.39;71.00;95166.19;5076974;28;20450;-58
2023/04/09 03:18:02;;;;;;;24.43;17.60;;;8.40;99.90;;;8.37;70.49;95164.66;5077800;28;20528;-58
2023/04/09 03:20:29;;;;;;;23.50;16.40;;;8.40;99.90;;;8.35;70.83;95169.16;5072064;28;20507;-57
2023/04/09 03:22:56;;;;;;;27.20;15.43;;;8.40;99.90;;;8.29;70.94;95161.78;5078247;28;20462;-68
2023/04/09 03:25:24;;;;;;;22.67;15.70;;;8.30;99.90;;;8.24;70.93;95167.38;5076956;28;20494;-69
2023/04/09 03:27:52;;;;;;;25.60;18.07;;;8.30;99.90;;;8.20;70.95;95166.78;5072844;28;20542;-58
2023/04/09 03:30:20;;;;;;;24.87;17.53;;;8.20;99.90;;;8.16;71.03;95159.28;5075054;28;20533;-58
2023/04/09 03:32:47;;;;;;;25.73;16.90;;;8.20;99.90;;;8.14;71.00;95167.25;5078010;28;20469;-68
2023/04/09 03:35:15;;;;;;;24.70;16.50;;;8.20;99.90;;;8.08;71.09;95159.88;5073986;28;20481;-57
2023/04/09 03:37:42;;;;;;;19.77;15.47;;;8.10;99.90;;;8.08;71.48;95167.72;5074130;28;20473;-67
2023/04/09 03:40:11;;;;;;;22.67;17.07;;;8.10;99.90;;;8.05;71.55;95170.59;5076059;28;20540;-58
2023/04/09 03:42:38;;;;;;;24.13;16.50;;;8.10;99.90;;;8.03;71.39;95162.00;5077707;28;20475;-56
2023/04/09 03:45:08;;;;;;;21.17;16.63;;;8.10;99.90;;;7.99;71.26;95163.19;5073699;28;20548;-56
2023/04/09 03:47:35;;;;;;;20.83;16.87;;;8.00;99.90;;;7.96;71.73;95163.41;5073215;28;21022;-57
2023/04/09 03:50:03;;;;;;;23.20;16.40;;;8.00;99.90;;;7.94;71.65;95175.81;5070733;28;20451;-58
2023/04/09 03:52:30;;;;;;;25.30;16.33;;;8.00;99.90;;;7.90;71.76;95176.03;5068961;28;20486;-66
2023/04/09 03:54:58;;;;;;;20.47;15.60;;;7.90;99.90;;;7.87;71.14;95178.88;5077006;28;20457;-61
2023/04/09 03:57:25;;;;;;;22.60;16.37;;;7.90;99.90;;;7.86;71.97;95184.25;5076437;28;20888;-56
2023/04/09 03:59:52;;;;;;;22.43;15.50;;;7.90;99.90;;;7.84;71.54;95186.97;5076167;28;20465;-68
2023/04/09 04:02:21;;;;;;;21.90;15.83;;;7.90;99.90;;;7.81;71.06;95187.22;5069254;28;20492;-66
2023/04/09 04:04:48;;;;;;;29.63;14.73;;;7.90;99.90;;;7.80;71.76;95187.31;5069757;28;20490;-56
2023/04/09 04:07:16;;;;;;;18.20;15.07;;;7.90;99.90;;;7.79;71.74;95191.75;5071872;28;20495;-67
2023/04/09 04:09:43;;;;;;;19.10;14.90;;;7.90;99.90;;;7.79;72.06;95191.75;5073161;28;20469;-58
2023/04/09 04:12:10;;;;;;;21.13;16.33;;;7.90;99.90;;;7.79;72.04;95185.66;5072867;28;20474;-58
2023/04/09 04:14:38;;;;;;;21.53;16.13;;;7.80;99.90;;;7.78;71.65;95184.00;5069638;28;20451;-58
2023/04/09 04:17:05;;;;;;;25.93;17.90;;;7.80;99.90;;;7.77;71.83;95180.53;5075120;28;20481;-58
2023/04/09 04:19:34;;;;;;;21.57;15.17;;;7.80;99.90;;;7.78;71.25;95187.44;5072399;28;20458;-56
2023/04/09 04:22:01;;;;;;;22.43;16.90;;;7.80;99.90;;;7.78;71.96;95182.19;5070937;28;20528;-56
2023/04/09 04:24:28;;;;;;;23.60;16.87;;;7.80;99.90;;;7.78;72.16;95179.59;5076534;28;20865;-57
2023/04/09 04:26:56;;;;;;;24.93;17.60;;;7.80;99.90;;;7.79;71.98;95189.13;5070939;28;20874;-56
2023/04/09 04:29:23;;;;;;;27.23;17.10;;;7.80;99.90;;;7.79;71.40;95183.88;5071143;28;21027;-57
2023/04/09 04:31:50;;;;;;;27.23;17.60;;;7.80;99.90;;;7.83;71.59;95185.28;5074044;28;20490;-67
2023/04/09 04:34:18;;;;;;;27.37;16.80;;;7.90;99.90;;;7.83;71.79;95184.47;5074283;28;20481;-67
2023/04/09 04:36:46;;;;;;;23.23;15.57;;;7.90;99.90;;;7.83;71.17;95182.69;5075063;28;20463;-67
2023/04/09 04:39:14;;;;;;;24.13;15.93;;;7.90;99.90;;;7.86;71.29;95189.47;5072322;28;20461;-66
2023/04/09 04:41:41;;;;;;;20.53;15.23;;;7.90;99.90;;;7.88;71.77;95187.56;5068906;28;20450;-57
2023/04/09 04:44:08;;;;;;;22.83;15.67;;;7.90;99.90;;;7.89;71.15;95184.84;5073905;28;20498;-59
2023/04/09 04:46:36;;;;;;;21.33;16.30;;;7.90;99.90;;;7.90;71.78;95190.94;5070204;28;20553;-68
2023/04/09 04:49:03;;;;;;;26.07;18.87;;;7.90;99.90;;;7.93;71.24;95184.59;5072431;28;20530;-56
2023/04/09 04:51:31;;;;;;;23.97;16.80;;;7.90;99.90;;;7.97;71.26;95186.88;5068813;28;20580;-57
2023/04/09 04:54:00;;;;;;;23.67;16.03;;;8.00;99.90;;;8.03;71.05;95196.06;5069202;28;20457;-58
2023/04/09 04:56:27;;;;;;;24.23;16.40;;;8.00;99.90;;;8.08;71.21;95193.94;5076954;28;20458;-59
2023/04/09 04:58:54;;;;;;;27.77;17.27;;;8.10;99.90;;;8.16;71.48;95191.53;5071960;28;20531;-58
2023/04/09 05:01:22;;;;;;;27.77;19.53;;;8.20;99.90;;;8.20;70.65;95192.16;5077780;28;20457;-68
2023/04/09 05:03:49;;;;;;;28.57;19.83;;;8.20;99.90;;;8.25;70.54;95187.41;5071353;28;20478;-56
2023/04/09 05:06:16;;;;;;;28.20;18.93;;;8.30;99.90;;;8.29;70.18;95191.47;5069264;28;20455;-58
2023/04/09 05:08:44;;;;;;;28.17;19.30;;;8.30;99.90;;;8.34;70.44;95194.56;5079629;28;20466;-58
2023/04/09 05:11:15;;;;;;;30.47;19.70;;;8.40;99.90;;;8.40;70.13;95194.06;5078818;28;20498;-67
2023/04/09 05:13:43;;;;;;;28.70;18.40;;;8.40;99.90;;;8.49;69.96;95191.72;5076574;28;20463;-69
2023/04/09 05:16:17;;;;;;;26.20;17.60;;;8.50;99.90;;;8.58;69.63;95191.88;5072927;28;20541;-58
2023/04/09 05:18:44;;;;;;;21.87;16.10;;;8.60;99.90;;;8.63;69.88;95198.50;5076209;28;20539;-58
2023/04/09 05:21:12;;;;;;;23.30;15.40;;;8.60;99.90;;;8.65;69.40;95196.63;5078422;28;20473;-57
2023/04/09 05:23:39;;;;;;;24.53;14.93;;;8.70;99.90;;;8.68;69.85;95188.53;5079440;28;20482;-68
2023/04/09 05:26:06;;;;;;;19.97;14.57;;;8.70;99.90;;;8.74;69.43;95185.41;5078545;28;20485;-67
2023/04/09 05:28:35;;;;;;;25.73;17.10;;;8.80;99.90;;;8.78;69.58;95195.53;5079298;28;21006;-68
2023/04/09 05:31:03;;;;;;;29.10;16.53;;;8.80;99.90;;;8.85;69.16;95187.19;5078976;28;20448;-71
2023/04/09 05:33:36;;;;;;;23.90;17.30;;;8.90;99.90;;;8.89;68.93;95189.44;5079485;28;20470;-67
2023/04/09 05:36:04;;;;;;;30.00;16.67;;;8.90;99.90;;;8.94;69.21;95187.28;5075751;28;20478;-69
2023/04/09 05:38:31;;;;;;;21.87;15.30;;;9.00;99.90;;;8.96;68.66;95182.75;5078291;28;20470;-57
2023/04/09 05:40:58;;;;;;;22.77;16.23;;;9.00;99.90;;;9.00;68.91;95188.59;5076781;28;20514;-68
2023/04/09 05:43:26;;;;;;;23.33;15.00;;;9.00;99.90;;;9.08;68.89;95195.84;5077145;28;20477;-67
2023/04/09 05:45:54;;;;;;;23.47;15.47;;;9.10;99.90;;;9.17;68.47;95202.13;5079791;28;21441;-67
2023/04/09 05:48:22;;;;;;;21.90;16.30;;;9.20;99.90;;;9.27;68.49;95200.47;5078535;28;20466;-67
2023/04/09 05:50:51;;;;;;;28.10;14.27;;;9.30;99.90;;;9.41;68.53;95209.84;5078256;28;20916;-57
2023/04/09 05:53:18;;;;;;;20.63;15.37;;;9.40;99.90;;;9.52;67.82;95202.75;5077364;28;20470;-58
2023/04/09 05:55:48;;;;;;;22.07;16.50;;;9.50;99.90;;;9.63;67.79;95206.28;5073630;28;21139;-68
2023/04/09 05:58:15;;;;;;;19.30;12.90;;;9.60;99.90;;;9.71;67.21;95205.66;5078664;28;20526;-71
2023/04/09 06:00:43;;;;;;;20.07;14.50;;;9.70;99.90;;;9.76;66.85;95206.13;5078343;28;20516;-58
2023/04/09 06:03:11;;;;;;;28.10;13.90;;;9.70;99.90;;;9.82;66.52;95201.22;5075935;28;20862;-58
2023/04/09 06:05:39;;;;;;;20.13;13.37;;;9.80;99.90;;;9.94;66.88;95195.88;5077571;28;20497;-71
2023/04/09 06:08:06;;;;;;;19.73;13.67;;;9.90;99.90;;;10.07;66.15;95198.31;5080422;28;20527;-65
2023/04/09 06:10:34;;;;;;;18.23;13.43;;;10.00;99.90;;;10.16;65.96;95194.91;5076202;28;20457;-65
2023/04/09 06:13:01;;;;;;;22.40;14.73;;;10.10;99.90;;;10.28;65.98;95191.25;5075886;28;20528;-58
2023/04/09 06:15:28;;;;;;;18.37;12.63;;;10.30;99.90;;;10.47;65.62;95198.47;5078400;28;20486;-65
2023/04/09 06:17:56;;;;;;;32.57;18.67;;;10.40;99.90;;;10.74;65.04;95205.75;5078740;28;20470;-65
2023/04/09 06:20:25;;;;;;;17.20;13.30;;;10.60;99.90;;;10.93;63.85;95204.16;5078962;28;20447;-59
2023/04/09 06:22:52;;;;;;;45.50;14.47;;;10.80;99.90;;;11.10;64.44;95198.25;5078029;28;20471;-64
2023/04/09 06:25:20;;;;;;;19.83;13.90;;;11.00;99.90;;;11.38;63.48;95197.63;5078842;28;20490;-58
2023/04/09 06:27:47;;;;;;;16.47;12.27;;;11.30;99.90;;;11.60;63.07;95197.38;5078846;28;20478;-70
2023/04/09 06:30:14;;;;;;;15.13;11.90;;;11.50;99.90;;;11.77;62.23;95197.63;5081216;28;20459;-58
2023/04/09 06:32:44;;;;;;;21.37;13.43;;;11.70;99.90;;;11.94;61.64;95204.84;5078094;28;20472;-68
2023/04/09 06:35:11;;;;;;;24.80;12.53;;;11.80;99.90;;;12.13;61.07;95197.91;5077898;28;20458;-57
2023/04/09 06:37:40;;;;;;;36.50;12.93;;;12.00;99.80;;;12.17;60.79;95194.84;5079350;28;21237;-59
2023/04/09 06:40:09;;;;;;;28.60;13.23;;;12.10;99.40;;;12.25;60.85;95201.22;5079096;28;20454;-66
2023/04/09 06:42:36;;;;;;;15.43;11.83;;;12.20;99.60;;;12.42;60.25;95204.94;5076209;28;20458;-68
2023/04/09 06:45:07;;;;;;;19.83;13.80;;;12.30;99.40;;;12.64;60.43;95201.09;5078222;28;20497;-68
2023/04/09 06:47:35;;;;;;;14.83;12.07;;;12.50;99.30;;;12.91;59.33;95208.25;5073198;28;21058;-58
2023/04/09 06:50:02;;;;;;;22.37;12.30;;;12.70;98.60;;;13.11;58.71;95213.44;5078091;28;20521;-66
2023/04/09 06:52:29;;;;;;;15.53;11.63;;;12.90;98.00;;;13.26;57.89;95210.16;5079255;28;20481;-58
2023/04/09 06:54:58;;;;;;;18.80;12.83;;;13.10;97.40;;;13.43;57.68;95216.47;5076306;28;20809;-65
2023/04/09 06:57:26;;;;;;;24.33;12.80;;;13.20;97.10;;;13.57;57.73;95206.34;5075369;28;20468;-56
2023/04/09 06:59:53;;;;;;;17.70;12.30;;;13.40;97.10;;;13.79;57.42;95213.03;5078158;28;20459;-67
2023/04/09 07:02:21;;;;;;;20.83;12.00;;;13.60;96.60;;;13.98;54.72;95206.75;5077151;28;20828;-66
2023/04/09 07:04:48;;;;;;;15.37;11.47;;;13.80;95.00;;;14.07;55.52;95211.13;5077389;28;20493;-66
2023/04/09 07:07:15;;;;;;;15.30;11.63;;;13.90;95.30;;;14.14;55.57;95211.34;5076421;28;20904;-67
2023/04/09 07:09:44;;;;;;;14.40;11.17;;;14.00;95.20;;;14.20;55.07;95220.47;5078861;28;21180;-57
2023/04/09 07:12:12;;;;;;;12.97;11.20;;;14.00;94.50;;;14.16;55.09;95214.66;5076521;28;20844;-57
2023/04/09 07:14:40;;;;;;;15.57;13.13;;;14.00;94.40;;;14.08;55.13;95214.59;5077960;28;20447;-58
2023/04/09 07:17:07;;;;;;;20.40;11.50;;;14.00;94.20;;;13.95;54.82;95215.81;5077687;28;20475;-57
2023/04/09 07:19:34;;;;;;;18.67;12.47;;;13.90;93.70;;;13.83;54.71;95214.38;5076693;28;20528;-66
2023/04/09 07:22:02;;;;;;;20.10;11.40;;;13.80;93.60;;;13.69;55.09;95204.34;5071557;28;20490;-68
2023/04/09 07:24:30;;;;;;;14.60;12.03;;;13.70;93.60;;;13.50;55.20;95214.06;5077504;28;20454;-58
2023/04/09 07:26:57;;;;;;;15.50;12.23;;;13.50;93.50;;;13.31;55.41;95209.72;5077067;28;20908;-66
2023/04/09 07:29:26;;;;;;;19.13;11.57;;;13.40;93.40;;;13.13;54.75;95224.69;5076716;28;20446;-69
2023/04/09 07:31:53;;;;;;;13.57;11.20;;;13.10;93.30;;;12.91;55.64;95218.81;5076977;28;20469;-58
2023/04/09 07:34:21;;;;;;;442.03;47.27;;;13.00;93.80;;;12.70;55.88;95219.00;5077225;28;20879;-70
2023/04/09 07:36:48;;;;;;;15.80;11.73;;;12.80;94.00;;;12.65;55.88;95222.06;5074451;28;20456;-69
2023/04/09 07:39:16;;;;;;;13.97;9.83;;;12.60;94.20;;;12.63;56.20;95216.13;5076743;28;20462;-58
2023/04/09 07:41:43;;;;;;;18.90;11.13;;;12.60;94.50;;;12.61;56.57;95212.81;5075966;28;20505;-57
2023/04/09 07:44:11;;;;;;;14.37;10.30;;;12.60;94.30;;;12.62;56.35;95213.63;5077733;28;20457;-65
2023/04/09 07:46:40;;;;;;;17.60;11.63;;;12.60;94.50;;;12.64;55.79;95211.66;5076680;28;21088;-68
2023/04/09 07:49:07;;;;;;;13.70;10.47;;;12.60;94.20;;;12.70;56.31;95222.50;5071123;28;20483;-57
2023/04/09 07:51:34;;;;;;;16.60;12.07;;;12.60;94.30;;;12.78;55.87;95218.28;5073481;28;20504;-57
2023/04/09 07:54:02;;;;;;;19.20;11.80;;;12.70;94.00;;;12.84;55.45;95218.56;5074727;28;20447;-58
2023/04/09 07:56:29;;;;;;;11.53;9.40;;;12.80;93.70;;;12.92;54.06;95223.13;5077681;28;20659;-60
2023/04/09 07:58:57;;;;;;;12.70;9.47;;;12.80;92.80;;;13.06;54.55;95219.97;5076859;28;20519;-66
2023/04/09 08:01:25;;;;;;;13.70;10.40;;;13.00;92.70;;;13.26;54.20;95223.34;5076541;28;20701;-68
2023/04/09 08:03:53;;;;;;;18.53;10.13;;;13.20;92.90;;;13.47;53.92;95222.28;5075278;28;20563;-58
2023/04/09 08:06:21;;;;;;;12.63;9.40;;;13.40;92.20;;;13.76;53.19;95223.91;5072566;28;20493;-68
2023/04/09 08:08:48;;;;;;;22.93;16.33;;;13.70;91.90;;;14.18;53.24;95227.75;5075998;28;20505;-58
2023/04/09 08:11:16;;;;;;;12.93;11.17;;;14.10;91.80;;;14.56;51.21;95221.22;5075669;28;20447;-57
2023/04/09 08:13:44;;;;;;;12.00;9.77;;;14.50;90.60;;;14.98;50.56;95219.66;5075976;28;21005;-66
2023/04/09 08:16:11;;;;;;;14.00;9.60;;;14.90;89.10;;;15.40;49.19;95224.97;5076260;28;20458;-67
2023/04/09 08:18:39;;;;;;;9.70;8.70;;;15.30;85.40;;;15.79;47.50;95228.91;5071271;28;20898;-68
2023/04/09 08:21:07;;;;;;;10.30;8.43;;;15.70;82.00;;;16.09;47.41;95224.78;5078549;28;20457;-58
2023/04/09 08:23:35;;;;;;;11.40;9.27;;;16.10;79.80;;;16.25;46.51;95223.97;5070814;28;20966;-58
2023/04/09 08:26:02;;;;;;;8.97;8.10;;;16.40;77.70;;;16.29;45.84;95230.59;5078195;28;20577;-57
2023/04/09 08:28:30;;;;;;;12.47;9.43;;;16.50;76.10;;;16.35;46.50;95233.59;5077628;28;20587;-60
2023/04/09 08:30:57;;;;;;;14.50;8.23;;;16.60;76.20;;;16.53;45.93;95225.44;5076942;28;20491;-56
2023/04/09 08:33:25;;;;;;;7.97;7.20;;;16.70;74.70;;;16.77;45.90;95227.25;5078005;28;20467;-72
2023/04/09 08:35:52;;;;;;;11.40;8.60;;;16.90;73.90;;;17.04;45.78;95228.72;5074876;28;20496;-62
2023/04/09 08:38:21;;;;;;;10.93;9.00;;;17.20;74.00;;;17.19;45.52;95229.63;5080582;28;20469;-62
2023/04/09 08:40:48;;;;;;;12.93;8.60;;;17.40;73.00;;;17.22;44.73;95230.31;5077630;28;20449;-63
2023/04/09 08:43:16;;;;;;;10.97;9.70;;;17.50;70.90;;;17.32;44.39;95215.81;5078574;28;20467;-62
2023/04/09 08:45:43;;;;;;;9.80;8.27;;;17.50;70.60;;;17.59;44.19;95215.50;5080326;28;20500;-64
2023/04/09 08:48:11;;;;;;;14.97;9.30;;;17.60;70.60;;;17.48;43.29;95220.22;5079244;28;20476;-59
2023/04/09 08:50:38;;;;;;;12.50;9.67;;;17.60;68.10;;;17.26;44.34;95211.19;5079218;28;20450;-62
2023/04/09 08:53:06;;;;;;;11.67;9.00;;;17.50;68.40;;;17.33;43.94;95206.00;5078938;28;20615;-59
2023/04/09 08:55:36;;;;;;;15.40;8.60;;;17.40;67.80;;;17.48;44.10;95203.44;5080815;28;20451;-59
2023/04/09 08:58:06;;;;;;;17.43;9.00;;;17.50;69.10;;;17.84;43.83;95205.53;5075015;28;20550;-58
2023/04/09 09:00:33;;;;;;;12.13;9.27;;;17.70;68.90;;;18.13;43.19;95220.03;5078900;28;20453;-61
2023/04/09 09:03:07;;;;;;;9.40;7.80;;;17.90;67.70;;;18.16;42.10;95212.50;5078947;28;20479;-62
2023/04/09 09:05:38;;;;;;;12.33;9.77;;;18.00;65.10;;;18.08;42.88;95207.25;5074377;28;20474;-63
2023/04/09 09:08:07;;;;;;;12.83;9.30;;;18.00;65.70;;;18.04;42.59;95205.94;5080957;28;20958;-63
2023/04/09 09:10:40;;;;;;;11.00;9.67;;;17.90;64.40;;;17.78;41.65;95195.59;5076965;28;20461;-61
2023/04/09 09:13:18;;;;;;;14.20;10.20;;;17.80;63.40;;;17.55;42.30;95210.53;5079735;28;20769;-57
2023/04/09 09:15:49;;;;;;;12.17;9.60;;;17.60;64.10;;;17.39;42.54;95221.25;5074975;28;20454;-57
2023/04/09 09:18:17;;;;;;;14.30;8.07;;;17.40;63.90;;;17.11;42.11;95210.25;5074144;28;20476;-57
2023/04/09 09:20:44;;;;;;;11.47;9.00;;;17.10;63.40;;;16.66;42.91;95194.72;5078766;28;20439;-62
2023/04/09 09:23:11;;;;;;;8.70;7.57;;;16.80;63.90;;;16.33;43.54;95199.25;5079915;28;20473;-62
2023/04/09 09:25:40;;;;;;;12.30;8.50;;;16.40;65.00;;;16.01;43.95;95208.06;5078227;28;20496;-57
2023/04/09 09:28:08;;;;;;;15.30;9.40;;;16.10;65.40;;;15.63;44.62;95200.53;5078036;28;20536;-57
2023/04/09 09:30:37;;;;;;;8.70;7.90;;;15.70;66.40;;;15.28;45.36;95198.94;5078566;28;20477;-57
2023/04/09 09:33:06;;;;;;;13.00;11.13;;;15.40;67.60;;;15.05;46.08;95192.38;5078140;28;20472;-62
2023/04/09 09:35:48;;;;;;;12.33;9.23;;;15.20;68.90;;;15.10;46.29;95191.91;5072782;28;20474;-57
2023/04/09 09:38:16;;;;;;;10.53;9.00;;;15.10;69.70;;;15.03;46.60;95189.06;5074432;28;20471;-57
2023/04/09 09:40:44;;;;;;;12.97;10.33;;;15.00;70.10;;;15.10;46.57;95185.78;5073845;28;20511;-61
2023/04/09 09:43:12;;;;;;;10.23;9.00;;;15.10;70.70;;;15.24;46.88;95188.66;5073320;28;21015;-62
2023/04/09 09:45:40;;;;;;;12.57;9.10;;;15.10;71.10;;;15.39;46.33;95185.38;5073744;28;20493;-62
2023/04/09 09:48:10;;;;;;;11.60;9.30;;;15.30;70.60;;;15.39;46.34;95172.94;5077343;28;20577;-56
2023/04/09 09:50:38;;;;;;;12.20;9.33;;;15.30;70.50;;;15.44;46.22;95180.41;5074242;28;20843;-56
2023/04/09 09:53:06;;;;;;;10.50;9.10;;;15.40;70.70;;;15.66;46.19;95186.09;5071168;28;20825;-57
2023/04/09 09:55:34;;;;;;;12.23;9.17;;;15.50;71.10;;;15.90;46.05;95177.38;5073890;28;20563;-58
2023/04/09 09:58:06;;;;;;;11.60;8.60;;;15.70;70.90;;;16.17;45.70;95180.69;5077541;28;20921;-63
2023/04/09 10:00:33;;;;;;;12.23;8.97;;;15.90;70.60;;;16.46;44.91;95178.31;5073663;28;20813;-57
2023/04/09 10:03:08;;;;;;;11.20;8.93;;;16.20;70.00;;;16.75;44.59;95170.81;5070330;28;20560;-63
2023/04/09 10:05:37;;;;;;;12.17;9.97;;;16.50;69.60;;;16.92;44.58;95168.97;5073563;28;20449;-62
2023/04/09 10:08:05;;;;;;;11.20;9.10;;;16.70;69.10;;;16.95;44.00;95161.47;5070808;28;20476;-62
2023/04/09 10:10:32;;;;;;;10.27;8.87;;;16.80;67.60;;;16.96;43.54;95170.25;5078647;28;20450;-56
2023/04/09 10:13:00;;;;;;;8.13;7.43;;;16.80;66.50;;;16.82;42.89;95162.00;5073802;28;20482;-56
2023/04/09 10:15:30;;;;;;;7.00;6.30;;;16.80;65.00;;;16.72;42.88;95171.16;5068886;28;20454;-57
2023/04/09 10:17:57;;;;;;;7.40;6.67;;;16.70;64.40;;;16.45;43.40;95166.06;5072900;28;20532;-57
2023/04/09 10:20:28;;;;;;;10.43;8.10;;;16.50;64.80;;;16.34;43.78;95163.75;5075324;28;20509;-62